Time;durP1;ratioP1;P1;durP2;ratioP2;P2;SDS_P1;SDS_P2;PMS_P1;PMS_P2;Temp;Humidity;BMP_temperature;BMP_pressure;BME280_temperature;BME280_humidity;BME280_pressure;Samples;Min_cycle;Max_cycle;Signal;HPM_P1;HPM_P2
2023/10/26 00:01:41;;;;;;;1.83;1.10;;;;;;;;;;5052846;28;20441;-61
2023/10/26 00:04:10;;;;;;;2.17;1.20;;;;;;;;;;5053214;28;20470;-61
2023/10/26 00:06:38;;;;;;;2.57;0.77;;;;;;;;;;5052894;28;20431;-61
2023/10/26 00:09:07;;;;;;;9.80;1.40;;;;;;;;;;5051803;28;20539;-62
2023/10/26 00:11:33;;;;;;;1.67;0.83;;;;;;;;;;5052907;28;20461;-62
2023/10/26 00:13:59;;;;;;;3.13;1.20;;;;;;;;;;5051552;28;20423;-62
2023/10/26 00:16:25;;;;;;;3.87;1.17;;;;;;;;;;5053118;28;20441;-61
2023/10/26 00:18:54;;;;;;;2.30;1.40;;;;;;;;;;5052936;28;20787;-61
2023/10/26 00:21:21;;;;;;;1.17;1.07;;;;;;;;;;5051349;28;20466;-61
2023/10/26 00:23:47;;;;;;;1.00;0.80;;;;;;;;;;5052784;28;20453;-62
2023/10/26 00:26:15;;;;;;;1.00;0.90;;;;;;;;;;5052826;28;20408;-61
2023/10/26 00:28:41;;;;;;;4.93;1.40;;;;;;;;;;5051432;28;20473;-61
2023/10/26 00:31:07;;;;;;;2.40;1.40;;;;;;;;;;5052739;28;20904;-61
2023/10/26 00:33:35;;;;;;;1.27;1.17;;;;;;;;;;5052610;28;20416;-62
2023/10/26 00:36:01;;;;;;;4.00;1.20;;;;;;;;;;5052648;28;20415;-62
2023/10/26 00:38:27;;;;;;;0.87;0.87;;;;;;;;;;5052520;28;20535;-61
2023/10/26 00:40:56;;;;;;;4.43;0.90;;;;;;;;;;5051980;28;20450;-61
2023/10/26 00:43:26;;;;;;;1.47;0.90;;;;;;;;;;5052473;28;20501;-62
2023/10/26 00:45:52;;;;;;;1.27;1.00;;;;;;;;;;5052369;28;20434;-61
2023/10/26 00:48:21;;;;;;;1.00;1.00;;;;;;;;;;5052539;28;20417;-62
2023/10/26 00:50:48;;;;;;;0.93;0.70;;;;;;;;;;5052364;28;20419;-61
2023/10/26 00:53:19;;;;;;;6.87;1.30;;;;;;;;;;5052507;28;20408;-61
2023/10/26 00:55:46;;;;;;;0.70;0.70;;;;;;;;;;5051183;28;20433;-62
2023/10/26 00:58:12;;;;;;;0.90;0.90;;;;;;;;;;5052353;28;20998;-61
2023/10/26 01:00:39;;;;;;;1.50;0.90;;;;;;;;;;5052263;28;20420;-61
2023/10/26 01:03:05;;;;;;;1.70;0.80;;;;;;;;;;5052292;28;20499;-61
2023/10/26 01:05:31;;;;;;;1.27;0.80;;;;;;;;;;5052319;28;20409;-61
2023/10/26 01:07:57;;;;;;;2.03;1.00;;;;;;;;;;5052317;28;20437;-62
2023/10/26 01:10:24;;;;;;;0.87;0.70;;;;;;;;;;5052269;28;20852;-62
2023/10/26 01:12:53;;;;;;;2.00;0.87;;;;;;;;;;5052145;28;20525;-61
2023/10/26 01:15:19;;;;;;;1.27;0.80;;;;;;;;;;5050932;28;20477;-61
2023/10/26 01:17:47;;;;;;;1.53;1.00;;;;;;;;;;5052088;28;20473;-61
2023/10/26 01:20:17;;;;;;;0.80;0.80;;;;;;;;;;5052049;28;20449;-61
2023/10/26 01:22:43;;;;;;;3.73;1.03;;;;;;;;;;5051980;28;20545;-62
2023/10/26 01:25:09;;;;;;;1.00;0.70;;;;;;;;;;5052192;28;20502;-61
2023/10/26 01:27:37;;;;;;;0.90;0.70;;;;;;;;;;5051973;28;20433;-62
2023/10/26 01:30:03;;;;;;;1.33;0.70;;;;;;;;;;5052316;28;20490;-62
2023/10/26 01:32:29;;;;;;;0.63;0.63;;;;;;;;;;5052164;28;20432;-62
2023/10/26 01:34:57;;;;;;;1.20;1.10;;;;;;;;;;5050727;28;20539;-61
2023/10/26 01:37:26;;;;;;;0.67;0.67;;;;;;;;;;5052022;28;20448;-61
2023/10/26 01:39:52;;;;;;;0.87;0.67;;;;;;;;;;5051747;28;20965;-61
2023/10/26 01:42:20;;;;;;;2.60;0.70;;;;;;;;;;5051988;28;20556;-62
2023/10/26 01:44:46;;;;;;;0.60;0.50;;;;;;;;;;5052221;28;20834;-61
2023/10/26 01:47:14;;;;;;;1.17;0.60;;;;;;;;;;5051912;28;20464;-62
2023/10/26 01:49:40;;;;;;;1.80;0.60;;;;;;;;;;5051963;28;20468;-61
2023/10/26 01:52:09;;;;;;;2.87;0.50;;;;;;;;;;5052298;28;20497;-62
2023/10/26 01:54:34;;;;;;;0.77;0.60;;;;;;;;;;5055849;28;20418;-61
2023/10/26 01:57:02;;;;;;;1.83;0.70;;;;;;;;;;5055518;28;20745;-62
2023/10/26 01:59:31;;;;;;;1.10;0.80;;;;;;;;;;5055558;28;20383;-62
2023/10/26 02:01:57;;;;;;;0.60;0.60;;;;;;;;;;5055186;28;20849;-62
2023/10/26 02:04:23;;;;;;;1.10;0.70;;;;;;;;;;5055455;28;20466;-62
2023/10/26 02:06:51;;;;;;;1.57;0.97;;;;;;;;;;5055264;28;20412;-62
2023/10/26 02:09:17;;;;;;;1.80;0.63;;;;;;;;;;5055285;28;20903;-62
2023/10/26 02:11:43;;;;;;;0.63;0.50;;;;;;;;;;5055463;28;20430;-62
2023/10/26 02:14:12;;;;;;;0.77;0.77;;;;;;;;;;5055245;28;20427;-62
2023/10/26 02:16:38;;;;;;;4.23;0.60;;;;;;;;;;5055282;28;20424;-62
2023/10/26 02:19:06;;;;;;;1.07;0.70;;;;;;;;;;5054983;28;20417;-62
2023/10/26 02:21:32;;;;;;;2.20;0.70;;;;;;;;;;5055141;28;20405;-62
2023/10/26 02:23:58;;;;;;;0.90;0.90;;;;;;;;;;5054869;28;20513;-62
2023/10/26 02:26:26;;;;;;;1.17;0.80;;;;;;;;;;5055284;28;20451;-62
2023/10/26 02:28:52;;;;;;;0.60;0.60;;;;;;;;;;5054682;28;20427;-62
2023/10/26 02:31:18;;;;;;;1.83;0.70;;;;;;;;;;5054951;28;20393;-62
2023/10/26 02:33:44;;;;;;;1.83;1.03;;;;;;;;;;5054725;28;20450;-62
2023/10/26 02:36:12;;;;;;;2.93;1.40;;;;;;;;;;5054842;28;20415;-62
2023/10/26 02:38:38;;;;;;;4.33;1.00;;;;;;;;;;5054579;28;20897;-62
2023/10/26 02:41:05;;;;;;;0.93;0.83;;;;;;;;;;5054876;28;20420;-62
2023/10/26 02:43:31;;;;;;;0.83;0.83;;;;;;;;;;5053212;28;20566;-62
2023/10/26 02:46:01;;;;;;;1.60;0.70;;;;;;;;;;5054652;28;20445;-62
2023/10/26 02:48:27;;;;;;;1.37;1.00;;;;;;;;;;5054405;28;20400;-62
2023/10/26 02:50:53;;;;;;;0.83;0.70;;;;;;;;;;5054415;28;20482;-62
2023/10/26 02:53:19;;;;;;;1.50;0.90;;;;;;;;;;5054444;28;20448;-62
2023/10/26 02:55:45;;;;;;;1.80;0.87;;;;;;;;;;5054487;28;20405;-62
2023/10/26 02:58:11;;;;;;;4.93;1.00;;;;;;;;;;5054241;28;20925;-62
2023/10/26 03:00:37;;;;;;;0.90;0.90;;;;;;;;;;5054247;28;20765;-62
2023/10/26 03:03:03;;;;;;;0.93;0.70;;;;;;;;;;5052865;28;20482;-62
2023/10/26 03:05:30;;;;;;;1.80;0.90;;;;;;;;;;5053537;28;20460;-62
2023/10/26 03:07:56;;;;;;;0.60;0.60;;;;;;;;;;5054017;28;20433;-62
2023/10/26 03:10:22;;;;;;;1.27;0.60;;;;;;;;;;5054172;28;20422;-62
2023/10/26 03:12:52;;;;;;;1.00;1.00;;;;;;;;;;5054140;28;21094;-62
2023/10/26 03:15:18;;;;;;;1.60;0.67;;;;;;;;;;5054051;28;20818;-62
2023/10/26 03:17:44;;;;;;;2.77;1.03;;;;;;;;;;5053988;28;20424;-62
2023/10/26 03:20:10;;;;;;;2.40;0.90;;;;;;;;;;5053774;28;20427;-62
2023/10/26 03:22:36;;;;;;;2.20;0.90;;;;;;;;;;5053871;28;20999;-62
2023/10/26 03:25:05;;;;;;;4.53;0.90;;;;;;;;;;5052634;28;20475;-62
2023/10/26 03:27:31;;;;;;;0.80;0.80;;;;;;;;;;5053748;28;20436;-62
2023/10/26 03:30:00;;;;;;;0.90;0.60;;;;;;;;;;5053786;28;20490;-62
2023/10/26 03:32:26;;;;;;;1.77;0.77;;;;;;;;;;5054004;28;20437;-62
2023/10/26 03:34:53;;;;;;;0.63;0.63;;;;;;;;;;5053676;28;20885;-62
2023/10/26 03:37:19;;;;;;;0.70;0.70;;;;;;;;;;5053635;28;20434;-62
2023/10/26 03:39:45;;;;;;;0.60;0.60;;;;;;;;;;5053580;28;20411;-62
2023/10/26 03:42:11;;;;;;;0.73;0.73;;;;;;;;;;5053436;28;20415;-62
2023/10/26 03:44:37;;;;;;;1.50;0.70;;;;;;;;;;5052279;28;20434;-62
2023/10/26 03:47:03;;;;;;;0.50;0.47;;;;;;;;;;5052075;28;20896;-62
2023/10/26 03:49:29;;;;;;;1.10;0.60;;;;;;;;;;5052206;28;20430;-62
2023/10/26 03:51:55;;;;;;;0.60;0.60;;;;;;;;;;5053335;28;20441;-62
2023/10/26 03:54:21;;;;;;;0.53;0.53;;;;;;;;;;5053195;28;20492;-62
2023/10/26 03:56:47;;;;;;;3.43;1.00;;;;;;;;;;5052041;28;20822;-62
2023/10/26 03:59:15;;;;;;;0.60;0.50;;;;;;;;;;5052997;28;20443;-62
2023/10/26 04:01:41;;;;;;;1.63;1.53;;;;;;;;;;5053062;28;20500;-62
2023/10/26 04:04:07;;;;;;;7.47;6.70;;;;;;;;;;5052975;28;20475;-62
2023/10/26 04:06:33;;;;;;;2.60;1.47;;;;;;;;;;5053196;28;20832;-62
2023/10/26 04:09:01;;;;;;;6.53;6.10;;;;;;;;;;5053016;28;20440;-62
2023/10/26 04:11:27;;;;;;;3.13;1.50;;;;;;;;;;5052973;28;20784;-62
2023/10/26 04:13:58;;;;;;;3.07;0.60;;;;;;;;;;5052981;28;20442;-62
2023/10/26 04:16:25;;;;;;;1.73;1.40;;;;;;;;;;5052055;28;20399;-62
2023/10/26 04:18:54;;;;;;;0.73;0.73;;;;;;;;;;5053108;28;20471;-62
2023/10/26 04:21:19;;;;;;;1.93;1.83;;;;;;;;;;5052636;28;20862;-62
2023/10/26 04:23:48;;;;;;;0.80;0.80;;;;;;;;;;5052775;28;20565;-62
2023/10/26 04:26:14;;;;;;;2.93;2.73;;;;;;;;;;5052863;28;20460;-62
2023/10/26 04:28:40;;;;;;;0.93;0.80;;;;;;;;;;5052697;28;20833;-62
2023/10/26 04:31:06;;;;;;;1.23;0.70;;;;;;;;;;5052627;28;20773;-62
2023/10/26 04:33:32;;;;;;;2.50;1.63;;;;;;;;;;5052650;28;20417;-62
2023/10/26 04:36:06;;;;;;;3.97;1.03;;;;;;;;;;5052786;28;20441;-62
2023/10/26 04:38:32;;;;;;;2.20;2.20;;;;;;;;;;5052613;28;20431;-62
2023/10/26 04:40:59;;;;;;;1.67;1.23;;;;;;;;;;5052581;28;20415;-62
2023/10/26 04:43:25;;;;;;;2.40;0.80;;;;;;;;;;5052337;28;20464;-62
2023/10/26 04:45:51;;;;;;;2.10;1.10;;;;;;;;;;5052588;28;20777;-62
2023/10/26 04:48:17;;;;;;;5.90;2.13;;;;;;;;;;5052369;28;20409;-62
2023/10/26 04:50:44;;;;;;;5.83;2.77;;;;;;;;;;5052437;28;20444;-62
2023/10/26 04:53:10;;;;;;;1.03;1.03;;;;;;;;;;5052571;28;20481;-62
2023/10/26 04:55:36;;;;;;;1.97;1.80;;;;;;;;;;5052434;28;20894;-62
2023/10/26 04:58:02;;;;;;;2.00;1.77;;;;;;;;;;5052467;28;20725;-62
2023/10/26 05:00:29;;;;;;;3.30;3.20;;;;;;;;;;5052393;28;20940;-62
2023/10/26 05:02:55;;;;;;;8.10;4.97;;;;;;;;;;5052375;28;20615;-62
2023/10/26 05:05:21;;;;;;;3.47;3.27;;;;;;;;;;5052493;28;20458;-62
2023/10/26 05:07:47;;;;;;;5.03;4.37;;;;;;;;;;5052274;28;20422;-62
2023/10/26 05:10:13;;;;;;;3.77;3.50;;;;;;;;;;5052171;28;20501;-62
2023/10/26 05:12:39;;;;;;;3.20;2.53;;;;;;;;;;5052376;28;20441;-62
2023/10/26 05:15:05;;;;;;;3.97;3.60;;;;;;;;;;5052267;28;20431;-62
2023/10/26 05:17:31;;;;;;;3.20;2.90;;;;;;;;;;5052124;28;20424;-62
2023/10/26 05:19:57;;;;;;;3.70;3.50;;;;;;;;;;5052107;28;20467;-62
2023/10/26 05:22:23;;;;;;;2.40;1.67;;;;;;;;;;5052008;28;20474;-62
2023/10/26 05:24:54;;;;;;;1.70;1.60;;;;;;;;;;5052108;28;20415;-62
2023/10/26 05:27:20;;;;;;;1.10;1.10;;;;;;;;;;5052726;28;20425;-62
2023/10/26 05:29:48;;;;;;;1.17;1.17;;;;;;;;;;5056017;28;20412;-62
2023/10/26 05:32:14;;;;;;;1.47;1.47;;;;;;;;;;5055880;28;20411;-62
2023/10/26 05:34:40;;;;;;;1.23;1.23;;;;;;;;;;5055796;28;20450;-62
2023/10/26 05:37:06;;;;;;;2.37;2.27;;;;;;;;;;5056340;28;20401;-62
2023/10/26 05:39:32;;;;;;;1.60;1.50;;;;;;;;;;5055730;28;20469;-62
2023/10/26 05:41:58;;;;;;;3.50;3.20;;;;;;;;;;5055822;28;20411;-62
2023/10/26 05:44:25;;;;;;;4.57;4.17;;;;;;;;;;5055436;28;20475;-62
2023/10/26 05:46:51;;;;;;;1.70;1.70;;;;;;;;;;5055758;28;20435;-62
2023/10/26 05:49:17;;;;;;;3.80;3.50;;;;;;;;;;5055756;28;20772;-62
2023/10/26 05:51:43;;;;;;;5.63;5.20;;;;;;;;;;5056257;28;20419;-62
2023/10/26 05:54:10;;;;;;;10.53;8.37;;;;;;;;;;5055486;28;20428;-62
2023/10/26 05:56:36;;;;;;;4.93;4.53;;;;;;;;;;5054891;28;20437;-62
2023/10/26 05:59:02;;;;;;;5.73;2.90;;;;;;;;;;5055723;28;20981;-62
2023/10/26 06:01:28;;;;;;;1.50;1.50;;;;;;;;;;5055604;28;20417;-62
2023/10/26 06:03:56;;;;;;;4.90;4.50;;;;;;;;;;5055264;28;20496;-62
2023/10/26 06:06:22;;;;;;;8.67;7.30;;;;;;;;;;5055285;28;20423;-62
2023/10/26 06:08:48;;;;;;;2.30;2.30;;;;;;;;;;5055225;28;20404;-62
2023/10/26 06:11:16;;;;;;;4.23;3.97;;;;;;;;;;5055359;28;20388;-62
2023/10/26 06:13:42;;;;;;;7.30;6.80;;;;;;;;;;5055020;28;20425;-62
2023/10/26 06:16:12;;;;;;;8.63;8.03;;;;;;;;;;5055458;28;20418;-62
2023/10/26 06:18:39;;;;;;;4.10;4.00;;;;;;;;;;5053778;28;20461;-62
2023/10/26 06:21:05;;;;;;;3.40;3.30;;;;;;;;;;5055111;28;20454;-63
2023/10/26 06:23:33;;;;;;;2.93;2.80;;;;;;;;;;5055049;28;20964;-62
2023/10/26 06:26:00;;;;;;;3.80;3.53;;;;;;;;;;5054943;28;20947;-62
2023/10/26 06:28:26;;;;;;;2.30;1.60;;;;;;;;;;5054989;28;20813;-62
2023/10/26 06:30:52;;;;;;;2.30;2.10;;;;;;;;;;5055263;28;20416;-62
2023/10/26 06:33:19;;;;;;;2.07;2.07;;;;;;;;;;5054926;28;20413;-62
2023/10/26 06:35:45;;;;;;;2.00;2.00;;;;;;;;;;5054881;28;20403;-62
2023/10/26 06:38:11;;;;;;;8.10;7.30;;;;;;;;;;5054447;28;20415;-62
2023/10/26 06:40:37;;;;;;;5.43;4.90;;;;;;;;;;5053648;28;20436;-62
2023/10/26 06:43:03;;;;;;;13.90;12.40;;;;;;;;;;5054363;28;20502;-62
2023/10/26 06:45:29;;;;;;;10.17;9.30;;;;;;;;;;5054548;28;20434;-62
2023/10/26 06:47:55;;;;;;;10.43;9.47;;;;;;;;;;5054550;28;20892;-62
2023/10/26 06:50:23;;;;;;;16.33;11.80;;;;;;;;;;5054401;28;20443;-62
2023/10/26 06:52:49;;;;;;;8.13;7.53;;;;;;;;;;5054261;28;20929;-62
2023/10/26 06:55:15;;;;;;;11.37;10.30;;;;;;;;;;5054416;28;20433;-62
2023/10/26 06:57:46;;;;;;;9.53;8.73;;;;;;;;;;5054323;28;20432;-62
2023/10/26 07:00:13;;;;;;;4.77;4.27;;;;;;;;;;5054334;28;20440;-62
2023/10/26 07:02:39;;;;;;;62.30;34.57;;;;;;;;;;5054049;28;20956;-62
2023/10/26 07:05:05;;;;;;;39.90;24.33;;;;;;;;;;5054243;28;20463;-62
2023/10/26 07:07:35;;;;;;;19.80;13.90;;;;;;;;;;5054435;28;20420;-62
2023/10/26 07:10:01;;;;;;;13.90;11.77;;;;;;;;;;5054148;28;20922;-62
2023/10/26 07:12:27;;;;;;;12.67;11.33;;;;;;;;;;5054068;28;20428;-62
2023/10/26 07:14:56;;;;;;;3.40;3.30;;;;;;;;;;5053948;28;20441;-62
2023/10/26 07:17:23;;;;;;;2.50;2.40;;;;;;;;;;5053967;28;20839;-62
2023/10/26 07:19:50;;;;;;;2.77;2.67;;;;;;;;;;5054101;28;20684;-63
2023/10/26 07:22:16;;;;;;;2.00;1.90;;;;;;;;;;5053893;28;20843;-62
2023/10/26 07:24:42;;;;;;;3.20;1.67;;;;;;;;;;5053778;28;20436;-62
2023/10/26 07:27:08;;;;;;;1.90;1.80;;;;;;;;;;5053937;28;20455;-63
2023/10/26 07:29:37;;;;;;;1.67;1.57;;;;;;;;;;5053668;28;20424;-63
2023/10/26 07:32:03;;;;;;;2.63;2.60;;;;;;;;;;5053505;28;20503;-61
2023/10/26 07:34:29;;;;;;;3.73;3.43;;;;;;;;;;5053666;28;20625;-61
2023/10/26 07:36:57;;;;;;;5.23;4.83;;;;;;;;;;5053714;28;20497;-61
2023/10/26 07:39:23;;;;;;;3.70;3.60;;;;;;;;;;5052293;28;20446;-61
2023/10/26 07:41:49;;;;;;;4.57;3.70;;;;;;;;;;5053440;28;20432;-61
2023/10/26 07:44:15;;;;;;;3.70;3.50;;;;;;;;;;5053875;28;20456;-61
2023/10/26 07:46:44;;;;;;;2.00;1.90;;;;;;;;;;5053368;28;20424;-62
2023/10/26 07:49:10;;;;;;;1.60;1.50;;;;;;;;;;5053323;28;20844;-62
2023/10/26 07:51:35;;;;;;;2.23;1.30;;;;;;;;;;5053509;28;20784;-61
2023/10/26 07:54:01;;;;;;;1.50;0.80;;;;;;;;;;5053276;28;20430;-61
2023/10/26 07:56:29;;;;;;;0.60;0.60;;;;;;;;;;5053263;28;20421;-62
2023/10/26 07:58:55;;;;;;;1.90;0.70;;;;;;;;;;5053188;28;20424;-62
2023/10/26 08:01:21;;;;;;;0.80;0.80;;;;;;;;;;5053312;28;20445;-62
2023/10/26 08:03:48;;;;;;;0.90;0.73;;;;;;;;;;5053070;28;20511;-61
2023/10/26 08:06:14;;;;;;;0.70;0.70;;;;;;;;;;5051949;28;20440;-61
2023/10/26 08:08:43;;;;;;;1.23;0.70;;;;;;;;;;5053190;28;20893;-62
2023/10/26 08:11:10;;;;;;;2.87;0.70;;;;;;;;;;5053050;28;20437;-61
2023/10/26 08:13:36;;;;;;;1.57;0.70;;;;;;;;;;5053045;28;20411;-61
2023/10/26 08:16:02;;;;;;;0.90;0.90;;;;;;;;;;5052843;28;20525;-61
2023/10/26 08:18:30;;;;;;;5.27;1.60;;;;;;;;;;5051714;28;20472;-61
2023/10/26 08:20:56;;;;;;;14.03;2.67;;;;;;;;;;5052734;28;20467;-61
2023/10/26 08:23:22;;;;;;;1.10;1.00;;;;;;;;;;5052649;28;20465;-61
2023/10/26 08:25:49;;;;;;;1.63;1.00;;;;;;;;;;5052841;28;20877;-61
2023/10/26 08:28:18;;;;;;;1.20;1.00;;;;;;;;;;5052885;28;20414;-61
2023/10/26 08:30:44;;;;;;;6.97;1.70;;;;;;;;;;5052665;28;20815;-61
2023/10/26 08:33:12;;;;;;;3.83;1.20;;;;;;;;;;5052594;28;20433;-62
2023/10/26 08:35:39;;;;;;;4.30;1.40;;;;;;;;;;5052565;28;20439;-61
2023/10/26 08:38:05;;;;;;;4.23;1.73;;;;;;;;;;5052595;28;20436;-61
2023/10/26 08:40:31;;;;;;;1.73;1.20;;;;;;;;;;5052607;28;20434;-61
2023/10/26 08:42:59;;;;;;;8.93;1.63;;;;;;;;;;5052331;28;20476;-61
2023/10/26 08:45:27;;;;;;;1.80;1.30;;;;;;;;;;5052395;28;20950;-61
2023/10/26 08:47:57;;;;;;;3.27;1.53;;;;;;;;;;5052658;28;20400;-61
2023/10/26 08:50:26;;;;;;;4.20;1.50;;;;;;;;;;5052554;28;20439;-61
2023/10/26 08:52:52;;;;;;;2.73;2.03;;;;;;;;;;5052651;28;20465;-61
2023/10/26 08:55:18;;;;;;;3.80;1.87;;;;;;;;;;5052385;28;20415;-62
2023/10/26 08:57:48;;;;;;;3.30;1.70;;;;;;;;;;5052371;28;20496;-61
2023/10/26 09:00:15;;;;;;;4.30;1.53;;;;;;;;;;5052598;28;20430;-61
2023/10/26 09:02:41;;;;;;;2.97;1.60;;;;;;;;;;5053797;28;20572;-61
2023/10/26 09:05:08;;;;;;;3.93;1.73;;;;;;;;;;5056379;28;20411;-61
2023/10/26 09:07:34;;;;;;;7.50;2.20;;;;;;;;;;5056454;28;20388;-61
2023/10/26 09:10:00;;;;;;;14.83;2.50;;;;;;;;;;5056307;28;20496;-61
2023/10/26 09:12:26;;;;;;;10.60;2.30;;;;;;;;;;5056313;28;20498;-61
2023/10/26 09:14:59;;;;;;;6.20;1.97;;;;;;;;;;5056252;28;20874;-61
2023/10/26 09:17:26;;;;;;;7.10;2.83;;;;;;;;;;5056498;28;20432;-61
2023/10/26 09:19:52;;;;;;;6.17;2.13;;;;;;;;;;5056092;28;20489;-61
2023/10/26 09:22:18;;;;;;;9.77;2.33;;;;;;;;;;5055992;28;20506;-61
2023/10/26 09:24:44;;;;;;;6.13;1.87;;;;;;;;;;5056042;28;20416;-61
2023/10/26 09:27:20;;;;;;;9.20;2.00;;;;;;;;;;5055912;28;20449;-62
2023/10/26 09:29:47;;;;;;;6.83;2.37;;;;;;;;;;5056161;28;20517;-61
2023/10/26 09:32:13;;;;;;;13.70;2.43;;;;;;;;;;5055681;28;20411;-61
2023/10/26 09:34:45;;;;;;;8.57;2.47;;;;;;;;;;5055836;28;20415;-61
2023/10/26 09:37:11;;;;;;;5.83;2.40;;;;;;;;;;5055707;28;20438;-61
2023/10/26 09:39:38;;;;;;;11.37;2.23;;;;;;;;;;5055882;28;20960;-61
2023/10/26 09:42:11;;;;;;;6.93;2.57;;;;;;;;;;5055695;28;20884;-61
2023/10/26 09:44:37;;;;;;;19.57;3.13;;;;;;;;;;5055727;28;20480;-61
2023/10/26 09:47:06;;;;;;;7.93;3.00;;;;;;;;;;5055788;28;20445;-61
2023/10/26 09:49:36;;;;;;;8.00;1.87;;;;;;;;;;5055984;28;20411;-61
2023/10/26 09:52:03;;;;;;;11.10;2.50;;;;;;;;;;5055573;28;20533;-60
2023/10/26 09:54:36;;;;;;;5.23;2.00;;;;;;;;;;5055575;28;20443;-60
2023/10/26 09:57:10;;;;;;;8.17;2.20;;;;;;;;;;5055496;28;20451;-60
2023/10/26 09:59:36;;;;;;;12.13;2.57;;;;;;;;;;5055554;28;20402;-62
2023/10/26 10:02:18;;;;;;;6.97;2.10;;;;;;;;;;5055114;28;20497;-61
2023/10/26 10:04:47;;;;;;;11.27;2.30;;;;;;;;;;5054557;28;20784;-62
2023/10/26 10:07:39;;;;;;;9.73;2.60;;;;;;;;;;5055140;28;20784;-62
2023/10/26 10:10:06;;;;;;;8.23;2.83;;;;;;;;;;5055180;28;20429;-61
2023/10/26 10:12:35;;;;;;;12.97;3.70;;;;;;;;;;5055332;28;20433;-61
2023/10/26 10:15:03;;;;;;;6.70;2.53;;;;;;;;;;5053899;28;20411;-61
2023/10/26 10:17:45;;;;;;;8.00;2.57;;;;;;;;;;5053592;28;20446;-61
2023/10/26 10:20:14;;;;;;;9.03;2.37;;;;;;;;;;5055009;28;20451;-61
2023/10/26 10:22:50;;;;;;;11.53;2.87;;;;;;;;;;5054846;28;20807;-61
2023/10/26 10:25:23;;;;;;;8.03;2.53;;;;;;;;;;5054905;28;20438;-61
2023/10/26 10:27:52;;;;;;;7.97;2.40;;;;;;;;;;5054993;28;20420;-62
2023/10/26 10:30:21;;;;;;;11.60;3.27;;;;;;;;;;5054889;28;20496;-61
2023/10/26 10:32:48;;;;;;;10.07;2.83;;;;;;;;;;5054581;28;20457;-62
2023/10/26 10:35:33;;;;;;;7.47;2.60;;;;;;;;;;5054977;28;20778;-61
2023/10/26 10:38:15;;;;;;;13.20;3.47;;;;;;;;;;5055183;28;20813;-61
2023/10/26 10:41:01;;;;;;;7.23;2.43;;;;;;;;;;5054818;28;20414;-62
2023/10/26 10:43:33;;;;;;;13.10;2.87;;;;;;;;;;5054455;28;20529;-61
2023/10/26 10:46:09;;;;;;;6.30;2.80;;;;;;;;;;5053369;28;20799;-61
2023/10/26 10:48:36;;;;;;;5.30;1.83;;;;;;;;;;5054871;28;20447;-61
2023/10/26 10:51:04;;;;;;;9.10;2.70;;;;;;;;;;5054577;28;20412;-61
2023/10/26 10:53:31;;;;;;;8.30;2.57;;;;;;;;;;5054522;28;20825;-61
2023/10/26 10:55:58;;;;;;;15.60;3.37;;;;;;;;;;5054534;28;20890;-61
2023/10/26 10:58:24;;;;;;;12.50;2.60;;;;;;;;;;5054562;28;20446;-61
2023/10/26 11:00:50;;;;;;;5.67;2.60;;;;;;;;;;5054412;28;20437;-61
2023/10/26 11:03:23;;;;;;;11.27;2.67;;;;;;;;;;5054353;28;20459;-61
2023/10/26 11:05:49;;;;;;;7.77;2.90;;;;;;;;;;5054343;28;20424;-61
2023/10/26 11:08:15;;;;;;;12.90;2.60;;;;;;;;;;5054279;28;20421;-61
2023/10/26 11:10:41;;;;;;;4.93;2.50;;;;;;;;;;5054137;28;20412;-61
2023/10/26 11:13:07;;;;;;;11.57;2.53;;;;;;;;;;5054138;28;20909;-61
2023/10/26 11:15:38;;;;;;;4.83;2.10;;;;;;;;;;5054168;28;20430;-61
2023/10/26 11:18:05;;;;;;;11.83;2.50;;;;;;;;;;5054146;28;20471;-61
2023/10/26 11:20:37;;;;;;;8.70;2.50;;;;;;;;;;5054068;28;20461;-61
2023/10/26 11:23:09;;;;;;;8.80;2.60;;;;;;;;;;5054039;28;20551;-61
2023/10/26 11:25:38;;;;;;;6.93;2.40;;;;;;;;;;5053097;28;20499;-61
2023/10/26 11:28:04;;;;;;;9.47;2.70;;;;;;;;;;5054290;28;20515;-61
2023/10/26 11:30:30;;;;;;;12.53;2.73;;;;;;;;;;5053766;28;20440;-61
2023/10/26 11:32:56;;;;;;;18.50;3.60;;;;;;;;;;5053764;28;20436;-61
2023/10/26 11:35:26;;;;;;;5.80;2.40;;;;;;;;;;5053595;28;20436;-61
2023/10/26 11:37:56;;;;;;;14.23;2.57;;;;;;;;;;5053882;28;20978;-62
2023/10/26 11:40:31;;;;;;;6.13;2.40;;;;;;;;;;5053472;28;20418;-61
2023/10/26 11:42:59;;;;;;;21.13;3.83;;;;;;;;;;5053535;28;20505;-61
2023/10/26 11:45:26;;;;;;;9.47;2.93;;;;;;;;;;5053784;28;20445;-62
2023/10/26 11:47:54;;;;;;;8.90;3.17;;;;;;;;;;5053496;28;20435;-62
2023/10/26 11:50:34;;;;;;;14.83;2.97;;;;;;;;;;5053400;28;20430;-61
2023/10/26 11:53:01;;;;;;;12.07;3.10;;;;;;;;;;5053432;28;20437;-61
2023/10/26 11:55:29;;;;;;;10.10;3.70;;;;;;;;;;5053528;28;20427;-62
2023/10/26 11:57:58;;;;;;;9.37;3.50;;;;;;;;;;5051464;28;20778;-61
2023/10/26 12:00:27;;;;;;;9.67;3.03;;;;;;;;;;5053361;28;20510;-61
2023/10/26 12:02:57;;;;;;;16.60;3.13;;;;;;;;;;5053343;28;20467;-61
2023/10/26 12:05:23;;;;;;;12.43;3.10;;;;;;;;;;5053163;28;20425;-61
2023/10/26 12:07:49;;;;;;;12.57;3.70;;;;;;;;;;5053094;28;20521;-61
2023/10/26 12:10:16;;;;;;;11.33;3.73;;;;;;;;;;5053006;28;20413;-62
2023/10/26 12:12:43;;;;;;;6.50;3.10;;;;;;;;;;5053298;28;20517;-61
2023/10/26 12:15:12;;;;;;;5.63;3.20;;;;;;;;;;5051766;28;20503;-62
2023/10/26 12:17:38;;;;;;;7.30;2.33;;;;;;;;;;5052807;28;20784;-61
2023/10/26 12:20:08;;;;;;;8.70;2.70;;;;;;;;;;5053030;28;20437;-61
2023/10/26 12:22:36;;;;;;;11.63;3.63;;;;;;;;;;5053031;28;20524;-62
2023/10/26 12:25:06;;;;;;;8.20;2.60;;;;;;;;;;5052810;28;20510;-62
2023/10/26 12:27:32;;;;;;;7.47;2.73;;;;;;;;;;5052868;28;20452;-61
2023/10/26 12:29:58;;;;;;;12.43;3.00;;;;;;;;;;5052854;28;20887;-62
2023/10/26 12:32:27;;;;;;;7.30;2.47;;;;;;;;;;5052892;28;20436;-62
2023/10/26 12:34:53;;;;;;;6.63;2.37;;;;;;;;;;5053235;28;20417;-61
2023/10/26 12:37:19;;;;;;;9.47;2.50;;;;;;;;;;5052507;28;20475;-62
2023/10/26 12:39:45;;;;;;;6.33;2.17;;;;;;;;;;5053759;28;20772;-62
2023/10/26 12:42:11;;;;;;;9.70;2.83;;;;;;;;;;5053371;28;20447;-62
2023/10/26 12:44:38;;;;;;;7.27;2.00;;;;;;;;;;5052743;28;20836;-61
2023/10/26 12:47:04;;;;;;;5.47;3.17;;;;;;;;;;5051244;28;20429;-62
2023/10/26 12:49:30;;;;;;;7.73;2.27;;;;;;;;;;5052544;28;20506;-62
2023/10/26 12:51:56;;;;;;;9.50;2.10;;;;;;;;;;5052454;28;20453;-62
2023/10/26 12:54:22;;;;;;;6.80;2.90;;;;;;;;;;5052632;28;20538;-62
2023/10/26 12:56:48;;;;;;;6.70;2.47;;;;;;;;;;5052470;28;20418;-62
2023/10/26 12:59:14;;;;;;;6.50;2.20;;;;;;;;;;5055476;28;20462;-61
2023/10/26 13:01:42;;;;;;;4.50;2.20;;;;;;;;;;5053377;28;20477;-62
2023/10/26 13:04:08;;;;;;;11.10;2.70;;;;;;;;;;5054712;28;20463;-61
2023/10/26 13:06:34;;;;;;;7.33;2.37;;;;;;;;;;5053821;28;20887;-62
2023/10/26 13:09:01;;;;;;;10.30;3.20;;;;;;;;;;5053295;28;20410;-62
2023/10/26 13:11:29;;;;;;;11.83;2.43;;;;;;;;;;5054026;28;20427;-62
2023/10/26 13:13:55;;;;;;;6.17;2.23;;;;;;;;;;5054445;28;20421;-62
2023/10/26 13:16:24;;;;;;;9.43;2.40;;;;;;;;;;5054046;28;20509;-62
2023/10/26 13:18:50;;;;;;;9.47;2.30;;;;;;;;;;5054228;28;20468;-61
2023/10/26 13:21:16;;;;;;;14.13;3.00;;;;;;;;;;5054224;28;20695;-62
2023/10/26 13:23:42;;;;;;;3.13;2.10;;;;;;;;;;5054779;28;20474;-61
2023/10/26 13:26:08;;;;;;;2.30;1.80;;;;;;;;;;5053166;28;20411;-61
2023/10/26 13:28:34;;;;;;;8.90;2.23;;;;;;;;;;5052162;28;20488;-61
2023/10/26 13:31:00;;;;;;;7.33;2.53;;;;;;;;;;5052202;28;20415;-62
2023/10/26 13:33:26;;;;;;;8.10;1.83;;;;;;;;;;5052218;28;20921;-62
2023/10/26 13:35:53;;;;;;;4.30;2.00;;;;;;;;;;5052321;28;20450;-62
2023/10/26 13:38:19;;;;;;;8.87;2.50;;;;;;;;;;5052318;28;20469;-61
2023/10/26 13:40:45;;;;;;;6.97;2.40;;;;;;;;;;5052521;28;20414;-61
2023/10/26 13:43:15;;;;;;;3.90;1.80;;;;;;;;;;5052138;28;20544;-62
2023/10/26 13:45:41;;;;;;;4.53;1.80;;;;;;;;;;5052319;28;20473;-62
2023/10/26 13:48:07;;;;;;;4.03;2.00;;;;;;;;;;5052860;28;20815;-62
2023/10/26 13:50:33;;;;;;;2.70;1.23;;;;;;;;;;5056256;28;20789;-62
2023/10/26 13:53:00;;;;;;;4.10;1.80;;;;;;;;;;5056313;28;20846;-62
2023/10/26 13:55:26;;;;;;;4.67;2.03;;;;;;;;;;5055995;28;20410;-62
2023/10/26 13:57:56;;;;;;;7.03;1.77;;;;;;;;;;5055706;28;20445;-62
2023/10/26 14:00:24;;;;;;;3.23;1.33;;;;;;;;;;5056029;28;20418;-62
2023/10/26 14:02:50;;;;;;;1.97;1.80;;;;;;;;;;5055929;28;20473;-62
2023/10/26 14:05:17;;;;;;;3.13;1.87;;;;;;;;;;5056269;28;20410;-62
2023/10/26 14:07:48;;;;;;;3.90;1.43;;;;;;;;;;5056044;28;20438;-62
2023/10/26 14:10:14;;;;;;;1.73;1.30;;;;;;;;;;5056136;28;20446;-61
2023/10/26 14:12:40;;;;;;;3.30;1.33;;;;;;;;;;5056135;28;20449;-62
2023/10/26 14:15:06;;;;;;;3.50;1.30;;;;;;;;;;5056098;28;20404;-62
2023/10/26 14:17:35;;;;;;;1.83;1.50;;;;;;;;;;5056332;28;20782;-62
2023/10/26 14:20:01;;;;;;;8.37;1.83;;;;;;;;;;5055663;28;20442;-62
2023/10/26 14:22:27;;;;;;;1.67;1.53;;;;;;;;;;5056322;28;20480;-61
2023/10/26 14:24:53;;;;;;;8.63;2.20;;;;;;;;;;5056318;28;20859;-61
2023/10/26 14:27:19;;;;;;;5.60;1.97;;;;;;;;;;5056122;28;20390;-62
2023/10/26 14:29:45;;;;;;;4.50;1.70;;;;;;;;;;5056361;28;20443;-62
2023/10/26 14:32:11;;;;;;;4.43;1.93;;;;;;;;;;5055881;28;20529;-62
2023/10/26 14:34:37;;;;;;;11.30;2.63;;;;;;;;;;5055251;28;20418;-61
2023/10/26 14:37:04;;;;;;;10.00;2.63;;;;;;;;;;5056619;28;20439;-62
2023/10/26 14:39:30;;;;;;;10.50;2.30;;;;;;;;;;5056619;28;20440;-61
2023/10/26 14:41:56;;;;;;;7.50;2.00;;;;;;;;;;5056442;28;20427;-61